Time;durP1;ratioP1;P1;durP2;ratioP2;P2;SDS_P1;SDS_P2;PMS_P1;PMS_P2;Temp;Humidity;BMP_temperature;BMP_pressure;BME280_temperature;BME280_humidity;BME280_pressure;Samples;Min_cycle;Max_cycle;Signal;HPM_P1;HPM_P2
2021/11/07 00:01:59;;;;;;;;;;;;;;;;;;5011792;28;20354;-67
2021/11/07 00:04:35;;;;;;;;;;;;;;;;;;5013139;28;19969;-68
2021/11/07 00:07:12;;;;;;;;;;;;;;;;;;5012662;28;20288;-68
2021/11/07 00:09:43;;;;;;;;;;;;;;;;;;5001770;28;20046;-67
2021/11/07 00:12:16;;;;;;;;;;;;;;;;;;5011613;28;19947;-68
2021/11/07 00:14:46;;;;;;;;;;;;;;;;;;4999168;28;19926;-67
2021/11/07 00:17:14;;;;;;;;;;;;;;;;;;5021602;28;20416;-66
2021/11/07 00:19:44;;;;;;;;;;;;;;;;;;5010793;28;19929;-68
2021/11/07 00:22:14;;;;;;;;;;;;;;;;;;5019591;28;20437;-68
2021/11/07 00:24:45;;;;;;;;;;;;;;;;;;5015608;28;20352;-68
2021/11/07 00:27:21;;;;;;;;;;;;;;;;;;5017693;28;19934;-67
2021/11/07 00:29:52;;;;;;;;;;;;;;;;;;5016431;28;19947;-67
2021/11/07 00:32:24;;;;;;;;;;;;;;;;;;5018269;28;20021;-67
2021/11/07 00:37:37;;;;;;;;;;;;;;;;;;5017437;28;19962;-66
2021/11/07 00:40:10;;;;;;;;;;;;;;;;;;5016403;28;19990;-67
2021/11/07 00:42:44;;;;;;;;;;;;;;;;;;5012171;28;20019;-67
2021/11/07 00:45:22;;;;;;;;;;;;;;;;;;5016332;28;20302;-67
2021/11/07 00:47:57;;;;;;;;;;;;;;;;;;5007629;28;20377;-66
2021/11/07 00:50:28;;;;;;;;;;;;;;;;;;5012809;28;19925;-67
2021/11/07 00:52:57;;;;;;;;;;;;;;;;;;5006424;28;19925;-64
2021/11/07 00:55:31;;;;;;;;;;;;;;;;;;5012933;28;19961;-69
2021/11/07 00:58:02;;;;;;;;;;;;;;;;;;5011119;28;19925;-69
2021/11/07 01:00:40;;;;;;;;;;;;;;;;;;5012988;28;19932;-67
2021/11/07 01:03:12;;;;;;;;;;;;;;;;;;5018455;28;19936;-67
2021/11/07 01:05:39;;;;;;;;;;;;;;;;;;5009422;28;20368;-66
2021/11/07 01:08:06;;;;;;;;;;;;;;;;;;5015931;28;20357;-67
2021/11/07 01:10:33;;;;;;;;;;;;;;;;;;5016875;28;19941;-66
2021/11/07 01:13:00;;;;;;;;;;;;;;;;;;5007939;28;19932;-67
2021/11/07 01:15:27;;;;;;;;;;;;;;;;;;5013389;28;19945;-67
2021/11/07 01:17:55;;;;;;;;;;;;;;;;;;5012640;28;20297;-66
2021/11/07 01:20:25;;;;;;;;;;;;;;;;;;5013991;28;19925;-66
2021/11/07 01:22:56;;;;;;;;;;;;;;;;;;5017657;28;20370;-67
2021/11/07 01:25:24;;;;;;;;;;;;;;;;;;5014941;28;19925;-66
2021/11/07 01:27:52;;;;;;;;;;;;;;;;;;5015202;28;19929;-64
2021/11/07 01:30:21;;;;;;;;;;;;;;;;;;5019151;28;20323;-66
2021/11/07 01:32:50;;;;;;;;;;;;;;;;;;5016657;28;19978;-65
2021/11/07 01:35:20;;;;;;;;;;;;;;;;;;5014315;28;20381;-66
2021/11/07 01:37:56;;;;;;;;;;;;;;;;;;5009355;28;19929;-66
2021/11/07 01:40:25;;;;;;;;;;;;;;;;;;5015373;28;19949;-66
2021/11/07 01:42:55;;;;;;;;;;;;;;;;;;5011430;28;19976;-66
2021/11/07 01:45:24;;;;;;;;;;;;;;;;;;5018975;28;20365;-66
2021/11/07 01:47:54;;;;;;;;;;;;;;;;;;5015093;28;19926;-67
2021/11/07 01:50:21;;;;;;;;;;;;;;;;;;5015229;28;19933;-67
2021/11/07 01:52:54;;;;;;;;;;;;;;;;;;5012295;28;20021;-66
2021/11/07 01:55:21;;;;;;;;;;;;;;;;;;5010869;28;19926;-66
2021/11/07 01:57:49;;;;;;;;;;;;;;;;;;5010564;28;20410;-65
2021/11/07 02:00:16;;;;;;;;;;;;;;;;;;5012056;28;20029;-66
2021/11/07 02:02:43;;;;;;;;;;;;;;;;;;5013759;28;19933;-69
2021/11/07 02:05:10;;;;;;;;;;;;;;;;;;5009753;28;19925;-67
2021/11/07 02:07:37;;;;;;;;;;;;;;;;;;5007038;28;19926;-68
2021/11/07 02:10:04;;;;;;;;;;;;;;;;;;5011715;28;19939;-68
2021/11/07 02:12:31;;;;;;;;;;;;;;;;;;5010128;28;19929;-66
2021/11/07 02:14:58;;;;;;;;;;;;;;;;;;5009896;28;20377;-66
2021/11/07 02:17:25;;;;;;;;;;;;;;;;;;5011101;28;19937;-66
2021/11/07 02:19:52;;;;;;;;;;;;;;;;;;5013662;28;19972;-67
2021/11/07 02:22:20;;;;;;;;;;;;;;;;;;5015984;28;19925;-67
2021/11/07 02:24:47;;;;;;;;;;;;;;;;;;5011307;28;20427;-66
2021/11/07 02:27:14;;;;;;;;;;;;;;;;;;5006885;28;19978;-66
2021/11/07 02:29:41;;;;;;;;;;;;;;;;;;5014128;28;19930;-66
2021/11/07 02:32:08;;;;;;;;;;;;;;;;;;5012858;28;19926;-72
2021/11/07 02:34:35;;;;;;;;;;;;;;;;;;5014953;28;20131;-66
2021/11/07 02:37:02;;;;;;;;;;;;;;;;;;5012344;28;19936;-66
2021/11/07 02:39:29;;;;;;;;;;;;;;;;;;5009104;28;19925;-64
2021/11/07 02:41:56;;;;;;;;;;;;;;;;;;5020253;28;19930;-67
2021/11/07 02:44:23;;;;;;;;;;;;;;;;;;5017993;28;20015;-67
2021/11/07 02:46:50;;;;;;;;;;;;;;;;;;5014560;28;19932;-66
2021/11/07 02:49:17;;;;;;;;;;;;;;;;;;5020245;28;19941;-66
2021/11/07 02:51:44;;;;;;;;;;;;;;;;;;5014851;28;19925;-66
2021/11/07 02:54:11;;;;;;;;;;;;;;;;;;5009696;28;19934;-65
2021/11/07 02:56:38;;;;;;;;;;;;;;;;;;5017448;28;19948;-68
2021/11/07 02:59:07;;;;;;;;;;;;;;;;;;5014877;28;20016;-66
2021/11/07 03:01:35;;;;;;;;;;;;;;;;;;5022161;28;19948;-68
2021/11/07 03:04:06;;;;;;;;;;;;;;;;;;5012423;28;19926;-67
2021/11/07 03:06:33;;;;;;;;;;;;;;;;;;5014886;28;19925;-67
2021/11/07 03:09:00;;;;;;;;;;;;;;;;;;5010204;28;19925;-67
2021/11/07 03:11:27;;;;;;;;;;;;;;;;;;5010047;28;19926;-66
2021/11/07 03:13:58;;;;;;;;;;;;;;;;;;5008312;28;19925;-66
2021/11/07 03:16:26;;;;;;;;;;;;;;;;;;5019500;28;19935;-65
2021/11/07 03:18:53;;;;;;;;;;;;;;;;;;5014283;28;20364;-66
2021/11/07 03:21:23;;;;;;;;;;;;;;;;;;5011876;28;19925;-67
2021/11/07 03:23:51;;;;;;;;;;;;;;;;;;5013572;28;19955;-67
2021/11/07 03:26:18;;;;;;;;;;;;;;;;;;5011544;28;19932;-67
2021/11/07 03:28:46;;;;;;;;;;;;;;;;;;5011655;28;19964;-67
2021/11/07 03:31:16;;;;;;;;;;;;;;;;;;5018588;28;19925;-67
2021/11/07 03:33:45;;;;;;;;;;;;;;;;;;5017780;28;19979;-67
2021/11/07 03:36:17;;;;;;;;;;;;;;;;;;5016252;28;19944;-67
2021/11/07 03:38:43;;;;;;;;;;;;;;;;;;5005487;28;20413;-68
2021/11/07 03:41:11;;;;;;;;;;;;;;;;;;5012516;28;20324;-67
2021/11/07 03:43:38;;;;;;;;;;;;;;;;;;5011457;28;19933;-65
2021/11/07 03:46:05;;;;;;;;;;;;;;;;;;5011040;28;20024;-66
2021/11/07 03:48:32;;;;;;;;;;;;;;;;;;5017815;28;19936;-65
2021/11/07 03:51:00;;;;;;;;;;;;;;;;;;5009527;28;19925;-65
2021/11/07 03:53:27;;;;;;;;;;;;;;;;;;5009821;28;20459;-66
2021/11/07 03:55:55;;;;;;;;;;;;;;;;;;5011328;28;19930;-65
2021/11/07 03:58:22;;;;;;;;;;;;;;;;;;5009556;28;19969;-65
2021/11/07 04:00:49;;;;;;;;;;;;;;;;;;5006523;28;19926;-66
2021/11/07 04:03:16;;;;;;;;;;;;;;;;;;5005268;28;19932;-65
2021/11/07 04:05:43;;;;;;;;;;;;;;;;;;5008574;28;19930;-66
2021/11/07 04:08:10;;;;;;;;;;;;;;;;;;5003048;28;19934;-66
2021/11/07 04:10:37;;;;;;;;;;;;;;;;;;5008283;28;19936;-65
2021/11/07 04:13:06;;;;;;;;;;;;;;;;;;5006634;28;19925;-66
2021/11/07 04:15:33;;;;;;;;;;;;;;;;;;5007855;28;19965;-65
2021/11/07 04:18:00;;;;;;;;;;;;;;;;;;5005523;28;20350;-67
2021/11/07 04:20:27;;;;;;;;;;;;;;;;;;5008278;28;19926;-66
2021/11/07 04:22:53;;;;;;;;;;;;;;;;;;5007795;28;20439;-69
2021/11/07 04:25:20;;;;;;;;;;;;;;;;;;5007217;28;19926;-65
2021/11/07 04:27:47;;;;;;;;;;;;;;;;;;5008029;28;19926;-65
2021/11/07 04:30:14;;;;;;;;;;;;;;;;;;5006126;28;19929;-66
2021/11/07 04:32:42;;;;;;;;;;;;;;;;;;5007720;28;20030;-65
2021/11/07 04:35:08;;;;;;;;;;;;;;;;;;5006711;28;19930;-66
2021/11/07 04:37:38;;;;;;;;;;;;;;;;;;5004759;28;20405;-65
2021/11/07 04:40:05;;;;;;;;;;;;;;;;;;5007654;28;19930;-66
2021/11/07 04:42:32;;;;;;;;;;;;;;;;;;5007151;28;20199;-67
2021/11/07 04:44:59;;;;;;;;;;;;;;;;;;5001000;28;19933;-66
2021/11/07 04:47:27;;;;;;;;;;;;;;;;;;5006417;28;20385;-66
2021/11/07 04:49:54;;;;;;;;;;;;;;;;;;5005752;28;20134;-66
2021/11/07 04:52:21;;;;;;;;;;;;;;;;;;5003211;28;20311;-66
2021/11/07 04:54:48;;;;;;;;;;;;;;;;;;5003880;28;19925;-67
2021/11/07 04:57:15;;;;;;;;;;;;;;;;;;5004825;28;19929;-66
2021/11/07 04:59:42;;;;;;;;;;;;;;;;;;5001085;28;20016;-66
2021/11/07 05:02:09;;;;;;;;;;;;;;;;;;5004720;28;19936;-66
2021/11/07 05:04:36;;;;;;;;;;;;;;;;;;5003985;28;19929;-66
2021/11/07 05:07:03;;;;;;;;;;;;;;;;;;5010037;28;19971;-66
2021/11/07 05:09:30;;;;;;;;;;;;;;;;;;5014022;28;20350;-66
2021/11/07 05:11:57;;;;;;;;;;;;;;;;;;5016377;28;19936;-66
2021/11/07 05:14:24;;;;;;;;;;;;;;;;;;5006359;28;19925;-66
2021/11/07 05:16:51;;;;;;;;;;;;;;;;;;5008656;28;19926;-66
2021/11/07 05:19:18;;;;;;;;;;;;;;;;;;5009235;28;19926;-65
2021/11/07 05:21:46;;;;;;;;;;;;;;;;;;5011082;28;19939;-66
2021/11/07 05:24:13;;;;;;;;;;;;;;;;;;5000928;28;19929;-65
2021/11/07 05:26:40;;;;;;;;;;;;;;;;;;5009534;28;19944;-66
2021/11/07 05:29:07;;;;;;;;;;;;;;;;;;5013354;28;19925;-66
2021/11/07 05:31:35;;;;;;;;;;;;;;;;;;5006608;28;19932;-66
2021/11/07 05:34:02;;;;;;;;;;;;;;;;;;5010288;28;20352;-65
2021/11/07 05:36:29;;;;;;;;;;;;;;;;;;5009708;28;19925;-65
2021/11/07 05:38:56;;;;;;;;;;;;;;;;;;5011955;28;19929;-65
2021/11/07 05:41:23;;;;;;;;;;;;;;;;;;5010830;28;20003;-65
2021/11/07 05:43:50;;;;;;;;;;;;;;;;;;5012062;28;19945;-66
2021/11/07 05:46:17;;;;;;;;;;;;;;;;;;5012028;28;20388;-65
2021/11/07 05:48:44;;;;;;;;;;;;;;;;;;5015986;28;19929;-65
2021/11/07 05:51:11;;;;;;;;;;;;;;;;;;5009284;28;20021;-65
2021/11/07 05:53:38;;;;;;;;;;;;;;;;;;5006518;28;20129;-65
2021/11/07 05:56:05;;;;;;;;;;;;;;;;;;5004683;28;19932;-65
2021/11/07 05:58:32;;;;;;;;;;;;;;;;;;5005660;28;19925;-65
2021/11/07 06:00:59;;;;;;;;;;;;;;;;;;5008337;28;19932;-66
2021/11/07 06:03:26;;;;;;;;;;;;;;;;;;5010416;28;19993;-65
2021/11/07 06:05:53;;;;;;;;;;;;;;;;;;5006260;28;19926;-66
2021/11/07 06:08:20;;;;;;;;;;;;;;;;;;5021580;28;19973;-66
2021/11/07 06:10:47;;;;;;;;;;;;;;;;;;5017628;28;19977;-65
2021/11/07 06:13:14;;;;;;;;;;;;;;;;;;5019739;28;20108;-66
2021/11/07 06:15:41;;;;;;;;;;;;;;;;;;5018334;28;19925;-66
2021/11/07 06:18:08;;;;;;;;;;;;;;;;;;5008859;28;19929;-66
2021/11/07 06:20:35;;;;;;;;;;;;;;;;;;5018352;28;19925;-65
2021/11/07 06:23:03;;;;;;;;;;;;;;;;;;5009265;28;19929;-66
2021/11/07 06:25:30;;;;;;;;;;;;;;;;;;5010627;28;19965;-66
2021/11/07 06:27:57;;;;;;;;;;;;;;;;;;5012789;28;20339;-66
2021/11/07 06:30:24;;;;;;;;;;;;;;;;;;5011913;28;20024;-66
2021/11/07 06:32:51;;;;;;;;;;;;;;;;;;5014242;28;19925;-66
2021/11/07 06:35:18;;;;;;;;;;;;;;;;;;5012161;28;19925;-66
2021/11/07 06:37:45;;;;;;;;;;;;;;;;;;5013609;28;19933;-66
2021/11/07 06:40:12;;;;;;;;;;;;;;;;;;5013409;28;19925;-64
2021/11/07 06:42:39;;;;;;;;;;;;;;;;;;5014102;28;19936;-66
2021/11/07 06:45:06;;;;;;;;;;;;;;;;;;5008095;28;20381;-66
2021/11/07 06:47:33;;;;;;;;;;;;;;;;;;5007292;28;19930;-65
2021/11/07 06:50:00;;;;;;;;;;;;;;;;;;5006355;28;19968;-66
2021/11/07 06:52:28;;;;;;;;;;;;;;;;;;5018664;28;19925;-66
2021/11/07 06:54:55;;;;;;;;;;;;;;;;;;5009619;28;19926;-66
2021/11/07 06:57:22;;;;;;;;;;;;;;;;;;5013006;28;19931;-66
2021/11/07 06:59:49;;;;;;;;;;;;;;;;;;5008953;28;19925;-66
2021/11/07 07:02:16;;;;;;;;;;;;;;;;;;5009758;28;20383;-66
2021/11/07 07:04:43;;;;;;;;;;;;;;;;;;5007710;28;19925;-66
2021/11/07 07:07:11;;;;;;;;;;;;;;;;;;5007748;28;19932;-66
2021/11/07 07:09:44;;;;;;;;;;;;;;;;;;5005796;28;20568;-66
2021/11/07 07:12:16;;;;;;;;;;;;;;;;;;5004547;28;19934;-66
2021/11/07 07:14:49;;;;;;;;;;;;;;;;;;5006437;28;19945;-66
2021/11/07 07:17:23;;;;;;;;;;;;;;;;;;5006504;28;20282;-67
2021/11/07 07:20:03;;;;;;;;;;;;;;;;;;5010243;28;19932;-67
2021/11/07 07:31:01;;;;;;;;;;;;;;;;;;5006669;28;20083;-66
2021/11/07 07:33:33;;;;;;;;;;;;;;;;;;5004379;28;19929;-66
2021/11/07 07:36:00;;;;;;;;;;;;;;;;;;5007834;28;19926;-66
2021/11/07 07:38:27;;;;;;;;;;;;;;;;;;5003272;28;19929;-66
2021/11/07 07:40:54;;;;;;;;;;;;;;;;;;5007922;28;20400;-66
2021/11/07 07:43:21;;;;;;;;;;;;;;;;;;5003811;28;19983;-66
2021/11/07 07:45:48;;;;;;;;;;;;;;;;;;5007871;28;20016;-66
2021/11/07 07:48:16;;;;;;;;;;;;;;;;;;5005743;28;19930;-66
2021/11/07 07:50:43;;;;;;;;;;;;;;;;;;5008374;28;19932;-66
2021/11/07 07:53:12;;;;;;;;;;;;;;;;;;5008819;28;19969;-66
2021/11/07 07:55:39;;;;;;;;;;;;;;;;;;5002793;28;20007;-66
2021/11/07 07:58:06;;;;;;;;;;;;;;;;;;5007084;28;19933;-66
2021/11/07 08:00:33;;;;;;;;;;;;;;;;;;5013096;28;19936;-66
2021/11/07 08:03:00;;;;;;;;;;;;;;;;;;5016322;28;20019;-66
2021/11/07 08:05:26;;;;;;;;;;;;;;;;;;5011124;28;20403;-66
2021/11/07 08:07:53;;;;;;;;;;;;;;;;;;5009033;28;19933;-66
2021/11/07 08:10:20;;;;;;;;;;;;;;;;;;5005010;28;19926;-66
2021/11/07 08:12:47;;;;;;;;;;;;;;;;;;5007501;28;19933;-65
2021/11/07 08:15:14;;;;;;;;;;;;;;;;;;5012862;28;19932;-66
2021/11/07 08:17:41;;;;;;;;;;;;;;;;;;5012206;28;20435;-67
2021/11/07 08:20:09;;;;;;;;;;;;;;;;;;5008855;28;19933;-67
2021/11/07 08:22:36;;;;;;;;;;;;;;;;;;5011908;28;19926;-66
2021/11/07 08:25:09;;;;;;;;;;;;;;;;;;5011377;28;19926;-65
2021/11/07 08:27:36;;;;;;;;;;;;;;;;;;5008180;28;19952;-66
2021/11/07 08:30:04;;;;;;;;;;;;;;;;;;5010981;28;20012;-65
2021/11/07 08:32:31;;;;;;;;;;;;;;;;;;5009768;28;19933;-66
2021/11/07 08:34:57;;;;;;;;;;;;;;;;;;5012954;28;19932;-66
2021/11/07 08:37:31;;;;;;;;;;;;;;;;;;5011952;28;20340;-66
2021/11/07 08:39:59;;;;;;;;;;;;;;;;;;5000886;28;19933;-66
2021/11/07 08:42:32;;;;;;;;;;;;;;;;;;5010546;28;20285;-65
2021/11/07 09:01:34;;;;;;;;;;;;;;;;;;5012010;28;20472;-66
2021/11/07 09:04:17;;;;;;;;;;;;;;;;;;5017623;28;19932;-67
2021/11/07 09:06:56;;;;;;;;;;;;;;;;;;5005212;28;19933;-66
2021/11/07 09:09:23;;;;;;;;;;;;;;;;;;5017555;28;19925;-66
2021/11/07 09:11:51;;;;;;;;;;;;;;;;;;5006770;28;19929;-66
2021/11/07 09:14:18;;;;;;;;;;;;;;;;;;5006100;28;20084;-67
2021/11/07 09:16:45;;;;;;;;;;;;;;;;;;5007889;28;19926;-66
2021/11/07 09:19:15;;;;;;;;;;;;;;;;;;5006575;28;20009;-67
2021/11/07 09:21:45;;;;;;;;;;;;;;;;;;5012236;28;19925;-66
2021/11/07 09:24:23;;;;;;;;;;;;;;;;;;5009782;28;19932;-66
2021/11/07 09:26:51;;;;;;;;;;;;;;;;;;5004387;28;19925;-66
2021/11/07 09:29:24;;;;;;;;;;;;;;;;;;5005917;28;19929;-66
2021/11/07 09:32:05;;;;;;;;;;;;;;;;;;5008428;28;20268;-66
2021/11/07 09:34:39;;;;;;;;;;;;;;;;;;5008715;28;19956;-68
2021/11/07 09:37:09;;;;;;;;;;;;;;;;;;5011655;28;19978;-68
2021/11/07 09:39:48;;;;;;;;;;;;;;;;;;5006217;28;19926;-67
2021/11/07 09:45:05;;;;;;;;;;;;;;;;;;5024406;22;20393;-61
2021/11/07 09:47:33;;;;;;;;;;;;;;;;;;5014450;28;19933;-60
2021/11/07 09:50:00;;;;;;;;;;;;;;;;;;5011498;28;19933;-61
2021/11/07 09:52:33;;;;;;;;;;;;;;;;;;5012575;28;20027;-58
2021/11/07 09:55:02;;;;;;;;;;;;;;;;;;5097823;28;19932;-58
2021/11/07 09:57:29;;;;;;;;;;;;;;;;;;5110423;28;19938;-61
2021/11/07 09:59:57;;;;;;;;;;;;;;;;;;5108274;28;20012;-61
2021/11/07 10:02:25;;;;;;;;;;;;;;;;;;5106389;28;19924;-58
2021/11/07 10:04:53;;;;;;;;;;;;;;;;;;5112441;28;19953;-60
2021/11/07 10:07:21;;;;;;;;;;;;;;;;;;5110338;28;19924;-60
2021/11/07 10:09:52;;;;;;;;;;;;;;;;;;5107643;28;19936;-60
2021/11/07 10:12:22;;;;;;;;;;;;;;;;;;5109127;28;20015;-60
2021/11/07 10:14:51;;;;;;;;;;;;;;;;;;5106118;28;19974;-60
2021/11/07 10:17:18;;;;;;;;;;;;;;;;;;5112093;28;19930;-60
2021/11/07 10:19:47;;;;;;;;;;;;;;;;;;5110666;28;19930;-58
2021/11/07 10:22:14;;;;;;;;;;;;;;;;;;5111187;28;20015;-58
2021/11/07 10:24:41;;;;;;;;;;;;;;;;;;5102538;28;19924;-59
2021/11/07 10:27:11;;;;;;;;;;;;;;;;;;5110745;28;19924;-59
2021/11/07 10:29:41;;;;;;;;;;;;;;;;;;5110636;28;19959;-60
2021/11/07 10:32:12;;;;;;;;;;;;;;;;;;5111242;28;19923;-61
2021/11/07 10:35:11;;;;;;;;;;;;;;;;;;5109979;28;19974;-59
2021/11/07 10:37:54;;;;;;;;;;;;;;;;;;5110467;28;19924;-60
2021/11/07 10:46:37;;;;;;;;;;;;;;;;;;5108009;28;19924;-59
2021/11/07 10:52:08;;;;;;;;;;;;;;;;;;5070656;28;19931;-61
2021/11/07 10:54:34;;;;;;;;;;;;;;;;;;5104823;28;19932;-58
2021/11/07 10:57:01;;;;;;;;;;;;;;;;;;5105525;28;20062;-58
2021/11/07 10:59:28;;;;;;;;;;;;;;;;;;5102571;28;20011;-58
2021/11/07 11:01:55;;;;;;;;;;;;;;;;;;5105484;28;19930;-58
2021/11/07 11:04:23;;;;;;;;;;;;;;;;;;5105242;28;19985;-57
2021/11/07 11:06:50;;;;;;;;;;;;;;;;;;5101561;28;20372;-61
2021/11/07 11:09:20;;;;;;;;;;;;;;;;;;5100773;28;20054;-61
2021/11/07 11:11:49;;;;;;;;;;;;;;;;;;5100711;28;19928;-59
2021/11/07 11:14:19;;;;;;;;;;;;;;;;;;5102327;28;19932;-59
2021/11/07 11:16:53;;;;;;;;;;;;;;;;;;5102469;28;20422;-60
2021/11/07 11:19:37;;;;;;;;;;;;;;;;;;5105977;28;20396;-61
2021/11/07 11:22:11;;;;;;;;;;;;;;;;;;5108013;28;19924;-60
2021/11/07 11:24:49;;;;;;;;;;;;;;;;;;5106773;28;19923;-60
2021/11/07 11:27:33;;;;;;;;;;;;;;;;;;5105348;28;19949;-60
2021/11/07 11:32:51;;;;;;;;;;;;;;;;;;5074865;28;19919;-59
2021/11/07 11:35:23;;;;;;;;;;;;;;;;;;5108097;28;20402;-59
2021/11/07 11:37:59;;;;;;;;;;;;;;;;;;5106550;28;19923;-60
2021/11/07 11:40:33;;;;;;;;;;;;;;;;;;5107636;28;20023;-58
2021/11/07 11:43:02;;;;;;;;;;;;;;;;;;5105209;28;20341;-59
2021/11/07 11:45:31;;;;;;;;;;;;;;;;;;5107271;28;20160;-59
2021/11/07 11:48:02;;;;;;;;;;;;;;;;;;5109624;28;19986;-60
2021/11/07 11:53:56;;;;;;;;;;;;;;;;;;5145975;27;19929;-58
2021/11/07 11:56:36;;;;;;;;;;;;;;;;;;5136221;27;19923;-59
2021/11/07 11:59:07;;;;;;;;;;;;;;;;;;5133000;27;19981;-59
2021/11/07 12:01:37;;;;;;;;;;;;;;;;;;5134091;27;20094;-60
2021/11/07 12:04:10;;;;;;;;;;;;;;;;;;5134069;27;19939;-61
2021/11/07 12:06:45;;;;;;;;;;;;;;;;;;5132019;27;20306;-59
2021/11/07 12:09:18;;;;;;;;;;;;;;;;;;5138050;27;19932;-60
2021/11/07 12:11:48;;;;;;;;;;;;;;;;;;5137970;27;20405;-60
2021/11/07 12:14:17;;;;;;;;;;;;;;;;;;5128783;27;19934;-60
2021/11/07 12:16:45;;;;;;;;;;;;;;;;;;5125063;27;20292;-59
2021/11/07 12:19:12;;;;;;;;;;;;;;;;;;5128451;27;19939;-59
2021/11/07 12:21:39;;;;;;;;;;;;;;;;;;5132150;27;20018;-60
2021/11/07 12:24:08;;;;;;;;;;;;;;;;;;5134207;27;20021;-60
2021/11/07 12:26:35;;;;;;;;;;;;;;;;;;5131291;27;19935;-60
2021/11/07 12:29:02;;;;;;;;;;;;;;;;;;5139218;27;19974;-59
2021/11/07 12:31:30;;;;;;;;;;;;;;;;;;5139296;27;20324;-59
2021/11/07 12:34:01;;;;;;;;;;;;;;;;;;5131456;27;20508;-59
2021/11/07 12:36:39;;;;;;;;;;;;;;;;;;5125757;27;19932;-59
2021/11/07 12:41:51;;;;;;;;;;;;;;;;;;5132103;27;20361;-60
2021/11/07 12:44:18;;;;;;;;;;;;;;;;;;5139017;27;19927;-60
2021/11/07 12:46:48;;;;;;;;;;;;;;;;;;5132124;27;20166;-59
2021/11/07 12:49:15;;;;;;;;;;;;;;;;;;5136902;27;19971;-58
2021/11/07 12:51:42;;;;;;;;;;;;;;;;;;5131485;27;19924;-60
2021/11/07 12:54:10;;;;;;;;;;;;;;;;;;5129975;27;20276;-60
2021/11/07 12:56:37;;;;;;;;;;;;;;;;;;5134013;27;19931;-60
2021/11/07 12:59:05;;;;;;;;;;;;;;;;;;5135431;27;20503;-59
2021/11/07 13:01:32;;;;;;;;;;;;;;;;;;5137217;27;20014;-60
2021/11/07 13:03:59;;;;;;;;;;;;;;;;;;5122645;27;20002;-61
2021/11/07 13:06:26;;;;;;;;;;;;;;;;;;5120263;27;19942;-60
2021/11/07 13:08:55;;;;;;;;;;;;;;;;;;5119996;27;20011;-59
2021/11/07 13:11:25;;;;;;;;;;;;;;;;;;5118824;27;19923;-60
2021/11/07 13:13:59;;;;;;;;;;;;;;;;;;5117208;27;20014;-60
2021/11/07 13:16:39;;;;;;;;;;;;;;;;;;5115304;27;19930;-59
2021/11/07 13:19:18;;;;;;;;;;;;;;;;;;5117296;27;20387;-59
2021/11/07 13:21:59;;;;;;;;;;;;;;;;;;5122165;27;20013;-57
2021/11/07 13:24:33;;;;;;;;;;;;;;;;;;5122247;27;19927;-57
2021/11/07 13:27:05;;;;;;;;;;;;;;;;;;5118686;27;20002;-60
2021/11/07 13:29:34;;;;;;;;;;;;;;;;;;5118710;27;19927;-60
2021/11/07 13:32:13;;;;;;;;;;;;;;;;;;5121697;27;19963;-60
2021/11/07 13:34:40;;;;;;;;;;;;;;;;;;5114720;27;19928;-59
2021/11/07 13:37:09;;;;;;;;;;;;;;;;;;5124327;27;19923;-60
2021/11/07 13:39:36;;;;;;;;;;;;;;;;;;5118332;27;19930;-59
2021/11/07 13:42:09;;;;;;;;;;;;;;;;;;5114880;27;19969;-57
2021/11/07 13:44:37;;;;;;;;;;;;;;;;;;5118480;27;19934;-58
2021/11/07 13:47:05;;;;;;;;;;;;;;;;;;5119396;27;19963;-59
2021/11/07 13:49:32;;;;;;;;;;;;;;;;;;5112288;27;20018;-60
2021/11/07 13:51:59;;;;;;;;;;;;;;;;;;5108831;27;20394;-60
2021/11/07 13:54:26;;;;;;;;;;;;;;;;;;5119441;27;19923;-60
2021/11/07 13:56:53;;;;;;;;;;;;;;;;;;5115725;27;19931;-60
2021/11/07 13:59:20;;;;;;;;;;;;;;;;;;5115389;27;19963;-60
2021/11/07 14:01:47;;;;;;;;;;;;;;;;;;5103684;27;19938;-60
2021/11/07 14:04:14;;;;;;;;;;;;;;;;;;5114094;27;19923;-59
2021/11/07 14:06:42;;;;;;;;;;;;;;;;;;5107334;27;20011;-58
2021/11/07 14:09:10;;;;;;;;;;;;;;;;;;5118131;27;19924;-60
2021/11/07 14:11:38;;;;;;;;;;;;;;;;;;5117725;27;20002;-60
2021/11/07 14:14:07;;;;;;;;;;;;;;;;;;5111112;27;19927;-60
2021/11/07 14:16:35;;;;;;;;;;;;;;;;;;5116522;27;19930;-57
2021/11/07 14:19:06;;;;;;;;;;;;;;;;;;5107356;27;20319;-60
2021/11/07 14:21:37;;;;;;;;;;;;;;;;;;5110960;27;19924;-60
2021/11/07 14:24:07;;;;;;;;;;;;;;;;;;5102873;27;19963;-60
2021/11/07 14:26:41;;;;;;;;;;;;;;;;;;5109184;27;19923;-60
2021/11/07 14:29:11;;;;;;;;;;;;;;;;;;5113137;27;19927;-60
2021/11/07 14:31:43;;;;;;;;;;;;;;;;;;5113346;27;19924;-60
2021/11/07 14:34:13;;;;;;;;;;;;;;;;;;5101409;27;19989;-59
2021/11/07 14:36:50;;;;;;;;;;;;;;;;;;5097025;27;19987;-59
2021/11/07 14:39:31;;;;;;;;;;;;;;;;;;5106553;27;20383;-60
2021/11/07 14:42:02;;;;;;;;;;;;;;;;;;5111329;27;19996;-59
2021/11/07 14:44:35;;;;;;;;;;;;;;;;;;5108113;27;19967;-61
2021/11/07 14:47:02;;;;;;;;;;;;;;;;;;5123975;27;20014;-60
2021/11/07 14:55:10;;;;;;;;;;;;;;;;;;5103220;27;20010;-60
2021/11/07 14:58:12;;;;;;;;;;;;;;;;;;5092396;27;20027;-60
2021/11/07 15:00:48;;;;;;;;;;;;;;;;;;5092168;27;20019;-59
2021/11/07 15:03:19;;;;;;;;;;;;;;;;;;5090602;28;19928;-59
2021/11/07 15:05:50;;;;;;;;;;;;;;;;;;5088346;28;19932;-60
2021/11/07 15:08:20;;;;;;;;;;;;;;;;;;5109103;27;19977;-59
2021/11/07 15:10:51;;;;;;;;;;;;;;;;;;5091052;27;20300;-58
2021/11/07 15:13:28;;;;;;;;;;;;;;;;;;5095785;28;20049;-57
2021/11/07 15:16:03;;;;;;;;;;;;;;;;;;5093160;27;19994;-61
2021/11/07 15:18:40;;;;;;;;;;;;;;;;;;5095900;27;20022;-59
2021/11/07 15:21:14;;;;;;;;;;;;;;;;;;5091766;28;19924;-60
2021/11/07 15:23:41;;;;;;;;;;;;;;;;;;5090583;28;19924;-60
2021/11/07 15:26:08;;;;;;;;;;;;;;;;;;5092593;27;20022;-60
2021/11/07 15:28:35;;;;;;;;;;;;;;;;;;5090733;28;19924;-59
2021/11/07 15:31:03;;;;;;;;;;;;;;;;;;5090906;27;20070;-59
2021/11/07 15:33:30;;;;;;;;;;;;;;;;;;5087990;28;20387;-55
2021/11/07 15:35:58;;;;;;;;;;;;;;;;;;5092139;27;19956;-54
2021/11/07 15:38:25;;;;;;;;;;;;;;;;;;5105202;27;19924;-60
2021/11/07 15:40:53;;;;;;;;;;;;;;;;;;5109632;27;19924;-60
2021/11/07 15:43:20;;;;;;;;;;;;;;;;;;5131878;27;19940;-61
2021/11/07 15:46:02;;;;;;;;;;;;;;;;;;5117428;28;19924;-57
2021/11/07 15:48:33;;;;;;;;;;;;;;;;;;5121831;28;19924;-60
2021/11/07 15:51:07;;;;;;;;;;;;;;;;;;5132156;28;19930;-58
2021/11/07 15:53:45;;;;;;;;;;;;;;;;;;5125804;28;19954;-58
2021/11/07 15:56:18;;;;;;;;;;;;;;;;;;5121980;28;19927;-61
2021/11/07 15:59:03;;;;;;;;;;;;;;;;;;5127846;28;19950;-57
2021/11/07 16:01:35;;;;;;;;;;;;;;;;;;5111200;28;19930;-59
2021/11/07 16:04:07;;;;;;;;;;;;;;;;;;5096791;28;19928;-59
2021/11/07 16:06:48;;;;;;;;;;;;;;;;;;5097023;28;20265;-59
2021/11/07 16:09:20;;;;;;;;;;;;;;;;;;5097429;28;19938;-59
2021/11/07 16:11:52;;;;;;;;;;;;;;;;;;5114417;28;19929;-59
2021/11/07 16:14:30;;;;;;;;;;;;;;;;;;5106244;28;19923;-59
2021/11/07 16:16:58;;;;;;;;;;;;;;;;;;5111691;28;19966;-60
2021/11/07 16:19:29;;;;;;;;;;;;;;;;;;5116238;28;20428;-60
2021/11/07 16:21:56;;;;;;;;;;;;;;;;;;5120906;28;19923;-59
2021/11/07 16:24:23;;;;;;;;;;;;;;;;;;5111963;28;19923;-61
2021/11/07 16:26:52;;;;;;;;;;;;;;;;;;5121573;28;19934;-60
2021/11/07 16:29:23;;;;;;;;;;;;;;;;;;5121014;28;20360;-61
2021/11/07 16:31:58;;;;;;;;;;;;;;;;;;5112481;28;19966;-59
2021/11/07 16:34:25;;;;;;;;;;;;;;;;;;5113074;28;19984;-59
2021/11/07 16:36:53;;;;;;;;;;;;;;;;;;5098730;28;19963;-60
2021/11/07 16:39:23;;;;;;;;;;;;;;;;;;5110518;27;19939;-60
2021/11/07 16:41:52;;;;;;;;;;;;;;;;;;5098514;27;19938;-61
2021/11/07 16:44:21;;;;;;;;;;;;;;;;;;5113447;27;19949;-60
2021/11/07 16:46:52;;;;;;;;;;;;;;;;;;5110366;27;19928;-60
2021/11/07 16:49:22;;;;;;;;;;;;;;;;;;5104129;28;19940;-61
2021/11/07 16:51:56;;;;;;;;;;;;;;;;;;5113303;27;19935;-61
2021/11/07 16:54:25;;;;;;;;;;;;;;;;;;5127986;28;19975;-59
2021/11/07 16:56:53;;;;;;;;;;;;;;;;;;5134106;27;19924;-61
2021/11/07 16:59:32;;;;;;;;;;;;;;;;;;5124496;27;19935;-58
2021/11/07 17:02:07;;;;;;;;;;;;;;;;;;5125285;27;20033;-60
2021/11/07 17:04:38;;;;;;;;;;;;;;;;;;5117649;27;20018;-61
2021/11/07 17:07:08;;;;;;;;;;;;;;;;;;5111555;27;19963;-60
2021/11/07 17:09:41;;;;;;;;;;;;;;;;;;5132446;27;19923;-58
2021/11/07 17:12:12;;;;;;;;;;;;;;;;;;5123691;27;19928;-59
2021/11/07 17:14:40;;;;;;;;;;;;;;;;;;5134047;27;19923;-59
2021/11/07 17:17:13;;;;;;;;;;;;;;;;;;5135396;27;19942;-58
2021/11/07 17:19:50;;;;;;;;;;;;;;;;;;5122951;28;19934;-60
2021/11/07 17:25:01;;;;;;;;;;;;;;;;;;5115106;28;19987;-60
2021/11/07 17:27:33;;;;;;;;;;;;;;;;;;5125749;27;19932;-60
2021/11/07 17:30:07;;;;;;;;;;;;;;;;;;5125156;28;19924;-61
2021/11/07 17:32:38;;;;;;;;;;;;;;;;;;5125369;28;19924;-60
2021/11/07 17:35:13;;;;;;;;;;;;;;;;;;5134797;27;19969;-60
2021/11/07 17:37:43;;;;;;;;;;;;;;;;;;5119344;28;19939;-58
2021/11/07 17:54:28;;;;;;;;;;;;;;;;;;5121137;27;20008;-60
2021/11/07 17:56:55;;;;;;;;;;;;;;;;;;5115792;27;19931;-59
2021/11/07 17:59:22;;;;;;;;;;;;;;;;;;5123266;27;19923;-59
2021/11/07 18:01:51;;;;;;;;;;;;;;;;;;5127437;27;19932;-59
2021/11/07 18:04:18;;;;;;;;;;;;;;;;;;5120454;27;19938;-61
2021/11/07 18:06:47;;;;;;;;;;;;;;;;;;5128135;27;19966;-60
2021/11/07 18:09:18;;;;;;;;;;;;;;;;;;5131791;27;20460;-61
2021/11/07 18:11:46;;;;;;;;;;;;;;;;;;5122878;27;19924;-61
2021/11/07 18:14:13;;;;;;;;;;;;;;;;;;5127373;27;19923;-62